sensor_id;sensor_type;location;lat;lon;timestamp;temperature;humidity
47310;DHT22;33046;52.270;6.832;2023-09-30T00:01:11;16.40;99.00
47310;DHT22;33046;52.270;6.832;2023-09-30T00:03:18;16.40;99.10
47310;DHT22;33046;52.270;6.832;2023-09-30T00:05:25;16.40;99.00
47310;DHT22;33046;52.270;6.832;2023-09-30T00:07:31;16.40;99.00
47310;DHT22;33046;52.270;6.832;2023-09-30T00:09:38;16.30;98.90
47310;DHT22;33046;52.270;6.832;2023-09-30T00:11:46;16.30;98.90
47310;DHT22;33046;52.270;6.832;2023-09-30T00:13:53;16.30;98.80
47310;DHT22;33046;52.270;6.832;2023-09-30T00:16:00;16.30;98.90
47310;DHT22;33046;52.270;6.832;2023-09-30T00:18:07;16.30;99.00
47310;DHT22;33046;52.270;6.832;2023-09-30T00:20:14;16.20;99.10
47310;DHT22;33046;52.270;6.832;2023-09-30T00:22:21;16.30;98.90
47310;DHT22;33046;52.270;6.832;2023-09-30T00:24:28;16.20;98.90
47310;DHT22;33046;52.270;6.832;2023-09-30T00:26:35;16.20;98.90
47310;DHT22;33046;52.270;6.832;2023-09-30T00:28:43;16.30;98.90
47310;DHT22;33046;52.270;6.832;2023-09-30T00:30:50;16.20;99.00
47310;DHT22;33046;52.270;6.832;2023-09-30T00:32:57;16.20;99.00
47310;DHT22;33046;52.270;6.832;2023-09-30T00:35:04;16.20;99.00
47310;DHT22;33046;52.270;6.832;2023-09-30T00:37:11;16.20;99.20
47310;DHT22;33046;52.270;6.832;2023-09-30T00:39:18;16.20;99.00
47310;DHT22;33046;52.270;6.832;2023-09-30T00:41:25;16.20;99.00
47310;DHT22;33046;52.270;6.832;2023-09-30T00:43:32;16.10;99.10
47310;DHT22;33046;52.270;6.832;2023-09-30T00:45:40;16.10;99.20
47310;DHT22;33046;52.270;6.832;2023-09-30T00:47:47;16.10;99.20
47310;DHT22;33046;52.270;6.832;2023-09-30T00:49:54;16.10;99.40
47310;DHT22;33046;52.270;6.832;2023-09-30T00:52:03;16.10;99.30
47310;DHT22;33046;52.270;6.832;2023-09-30T00:54:10;16.10;99.40
47310;DHT22;33046;52.270;6.832;2023-09-30T00:56:18;16.10;99.40
47310;DHT22;33046;52.270;6.832;2023-09-30T00:58:27;16.10;99.30
47310;DHT22;33046;52.270;6.832;2023-09-30T01:00:35;16.10;99.30
47310;DHT22;33046;52.270;6.832;2023-09-30T01:02:44;16.10;99.30
47310;DHT22;33046;52.270;6.832;2023-09-30T01:04:52;16.10;99.30
47310;DHT22;33046;52.270;6.832;2023-09-30T01:06:59;16.10;99.40
47310;DHT22;33046;52.270;6.832;2023-09-30T01:09:25;16.00;99.40
47310;DHT22;33046;52.270;6.832;2023-09-30T01:12:31;16.10;99.60
47310;DHT22;33046;52.270;6.832;2023-09-30T01:14:42;16.00;99.70
47310;DHT22;33046;52.270;6.832;2023-09-30T01:17:09;16.00;99.70
47310;DHT22;33046;52.270;6.832;2023-09-30T01:19:18;16.00;99.60
47310;DHT22;33046;52.270;6.832;2023-09-30T01:21:25;16.00;99.70
47310;DHT22;33046;52.270;6.832;2023-09-30T01:23:33;16.00;99.70
47310;DHT22;33046;52.270;6.832;2023-09-30T01:25:40;15.90;99.80
47310;DHT22;33046;52.270;6.832;2023-09-30T01:27:47;16.00;99.70
47310;DHT22;33046;52.270;6.832;2023-09-30T01:29:54;16.00;99.80
47310;DHT22;33046;52.270;6.832;2023-09-30T01:32:01;16.00;99.80
47310;DHT22;33046;52.270;6.832;2023-09-30T01:34:08;16.00;99.90
47310;DHT22;33046;52.270;6.832;2023-09-30T01:36:15;15.90;99.90
47310;DHT22;33046;52.270;6.832;2023-09-30T01:38:23;15.90;99.90
47310;DHT22;33046;52.270;6.832;2023-09-30T01:40:31;15.90;99.90
47310;DHT22;33046;52.270;6.832;2023-09-30T01:42:38;15.90;99.90
47310;DHT22;33046;52.270;6.832;2023-09-30T01:44:45;15.90;99.90
47310;DHT22;33046;52.270;6.832;2023-09-30T01:46:52;15.90;99.90
47310;DHT22;33046;52.270;6.832;2023-09-30T01:48:59;15.90;99.90
47310;DHT22;33046;52.270;6.832;2023-09-30T01:51:06;15.90;99.90
47310;DHT22;33046;52.270;6.832;2023-09-30T01:53:13;15.90;99.90
47310;DHT22;33046;52.270;6.832;2023-09-30T01:55:20;15.90;99.90
47310;DHT22;33046;52.270;6.832;2023-09-30T01:57:28;15.80;99.90
47310;DHT22;33046;52.270;6.832;2023-09-30T01:59:35;15.80;99.90
47310;DHT22;33046;52.270;6.832;2023-09-30T02:01:42;15.80;99.90
47310;DHT22;33046;52.270;6.832;2023-09-30T02:03:48;15.80;99.90
47310;DHT22;33046;52.270;6.832;2023-09-30T02:06:41;15.80;99.90
47310;DHT22;33046;52.270;6.832;2023-09-30T02:08:48;15.80;99.90
47310;DHT22;33046;52.270;6.832;2023-09-30T02:10:55;15.80;99.90
47310;DHT22;33046;52.270;6.832;2023-09-30T02:13:03;15.80;99.90
47310;DHT22;33046;52.270;6.832;2023-09-30T02:15:11;15.80;99.90
47310;DHT22;33046;52.270;6.832;2023-09-30T02:17:18;15.80;99.90
47310;DHT22;33046;52.270;6.832;2023-09-30T02:19:25;15.80;99.90
47310;DHT22;33046;52.270;6.832;2023-09-30T02:21:32;15.80;99.90
47310;DHT22;33046;52.270;6.832;2023-09-30T02:23:39;15.70;99.80
47310;DHT22;33046;52.270;6.832;2023-09-30T02:25:45;15.80;99.90
47310;DHT22;33046;52.270;6.832;2023-09-30T02:27:52;15.70;99.90
47310;DHT22;33046;52.270;6.832;2023-09-30T02:30:00;15.70;99.90
47310;DHT22;33046;52.270;6.832;2023-09-30T02:32:07;15.70;99.90
47310;DHT22;33046;52.270;6.832;2023-09-30T02:34:14;15.70;99.90
47310;DHT22;33046;52.270;6.832;2023-09-30T02:36:21;15.70;99.90
47310;DHT22;33046;52.270;6.832;2023-09-30T02:38:29;15.70;99.90
47310;DHT22;33046;52.270;6.832;2023-09-30T02:40:36;15.60;99.90
47310;DHT22;33046;52.270;6.832;2023-09-30T02:42:43;15.60;99.90
47310;DHT22;33046;52.270;6.832;2023-09-30T02:44:50;15.60;99.90
47310;DHT22;33046;52.270;6.832;2023-09-30T02:46:58;15.60;99.90
47310;DHT22;33046;52.270;6.832;2023-09-30T02:49:05;15.60;99.90
47310;DHT22;33046;52.270;6.832;2023-09-30T02:51:12;15.60;99.90
47310;DHT22;33046;52.270;6.832;2023-09-30T02:53:19;15.60;99.90
47310;DHT22;33046;52.270;6.832;2023-09-30T02:55:25;15.60;99.90
47310;DHT22;33046;52.270;6.832;2023-09-30T02:57:32;15.60;99.90
47310;DHT22;33046;52.270;6.832;2023-09-30T02:59:39;15.60;99.90
47310;DHT22;33046;52.270;6.832;2023-09-30T03:01:46;15.50;99.90
47310;DHT22;33046;52.270;6.832;2023-09-30T03:04:19;15.50;99.90
47310;DHT22;33046;52.270;6.832;2023-09-30T03:06:28;15.50;99.90
47310;DHT22;33046;52.270;6.832;2023-09-30T03:08:56;15.50;99.90
47310;DHT22;33046;52.270;6.832;2023-09-30T03:11:18;15.50;99.90
47310;DHT22;33046;52.270;6.832;2023-09-30T03:14:11;15.50;99.90
47310;DHT22;33046;52.270;6.832;2023-09-30T03:16:18;15.50;99.90
47310;DHT22;33046;52.270;6.832;2023-09-30T03:18:25;15.50;99.90
47310;DHT22;33046;52.270;6.832;2023-09-30T03:20:33;15.50;99.90
47310;DHT22;33046;52.270;6.832;2023-09-30T03:22:40;15.50;99.90
47310;DHT22;33046;52.270;6.832;2023-09-30T03:24:47;15.50;99.90
47310;DHT22;33046;52.270;6.832;2023-09-30T03:26:54;15.40;99.90
47310;DHT22;33046;52.270;6.832;2023-09-30T03:29:01;15.40;99.90
47310;DHT22;33046;52.270;6.832;2023-09-30T03:31:08;15.40;99.90
47310;DHT22;33046;52.270;6.832;2023-09-30T03:33:14;15.40;99.90
47310;DHT22;33046;52.270;6.832;2023-09-30T03:35:21;15.40;99.90
47310;DHT22;33046;52.270;6.832;2023-09-30T03:37:31;15.40;99.90
47310;DHT22;33046;52.270;6.832;2023-09-30T03:39:38;15.40;99.90
47310;DHT22;33046;52.270;6.832;2023-09-30T03:41:44;15.40;99.90
47310;DHT22;33046;52.270;6.832;2023-09-30T03:43:51;15.30;99.90
47310;DHT22;33046;52.270;6.832;2023-09-30T03:45:58;15.30;99.90
47310;DHT22;33046;52.270;6.832;2023-09-30T03:48:05;15.30;99.90
47310;DHT22;33046;52.270;6.832;2023-09-30T03:50:12;15.30;99.90
47310;DHT22;33046;52.270;6.832;2023-09-30T03:52:19;15.30;99.90
47310;DHT22;33046;52.270;6.832;2023-09-30T03:54:27;15.30;99.90
47310;DHT22;33046;52.270;6.832;2023-09-30T03:56:34;15.30;99.90
47310;DHT22;33046;52.270;6.832;2023-09-30T03:58:41;15.30;99.90
47310;DHT22;33046;52.270;6.832;2023-09-30T04:00:48;15.30;99.90
47310;DHT22;33046;52.270;6.832;2023-09-30T04:02:55;15.30;99.90
47310;DHT22;33046;52.270;6.832;2023-09-30T04:05:02;15.20;99.90
47310;DHT22;33046;52.270;6.832;2023-09-30T04:07:09;15.20;99.90
47310;DHT22;33046;52.270;6.832;2023-09-30T04:09:16;15.20;99.90
47310;DHT22;33046;52.270;6.832;2023-09-30T04:11:24;15.20;99.90
47310;DHT22;33046;52.270;6.832;2023-09-30T04:13:31;15.20;99.90
47310;DHT22;33046;52.270;6.832;2023-09-30T04:15:50;15.20;99.90
47310;DHT22;33046;52.270;6.832;2023-09-30T04:18:34;15.20;99.90
47310;DHT22;33046;52.270;6.832;2023-09-30T04:20:57;15.20;99.90
47310;DHT22;33046;52.270;6.832;2023-09-30T04:26:44;15.20;99.90
47310;DHT22;33046;52.270;6.832;2023-09-30T04:28:51;15.10;99.90
47310;DHT22;33046;52.270;6.832;2023-09-30T04:30:58;15.10;99.90
47310;DHT22;33046;52.270;6.832;2023-09-30T04:33:05;15.10;99.90
47310;DHT22;33046;52.270;6.832;2023-09-30T04:35:12;15.10;99.90
47310;DHT22;33046;52.270;6.832;2023-09-30T04:37:19;15.10;99.90
47310;DHT22;33046;52.270;6.832;2023-09-30T04:39:25;15.10;99.90
47310;DHT22;33046;52.270;6.832;2023-09-30T04:41:32;15.10;99.90
47310;DHT22;33046;52.270;6.832;2023-09-30T04:43:40;15.10;99.90
47310;DHT22;33046;52.270;6.832;2023-09-30T04:45:47;15.00;99.90
47310;DHT22;33046;52.270;6.832;2023-09-30T04:47:54;15.00;99.90
47310;DHT22;33046;52.270;6.832;2023-09-30T04:50:01;15.00;99.90
47310;DHT22;33046;52.270;6.832;2023-09-30T04:52:08;15.00;99.90
47310;DHT22;33046;52.270;6.832;2023-09-30T04:54:15;15.00;99.90
47310;DHT22;33046;52.270;6.832;2023-09-30T04:56:22;15.10;99.90
47310;DHT22;33046;52.270;6.832;2023-09-30T04:58:29;15.00;99.90
47310;DHT22;33046;52.270;6.832;2023-09-30T05:00:37;15.00;99.90
47310;DHT22;33046;52.270;6.832;2023-09-30T05:02:44;15.00;99.90
47310;DHT22;33046;52.270;6.832;2023-09-30T05:04:51;15.10;99.90
47310;DHT22;33046;52.270;6.832;2023-09-30T05:06:58;15.00;99.90
47310;DHT22;33046;52.270;6.832;2023-09-30T05:09:04;15.10;99.90
47310;DHT22;33046;52.270;6.832;2023-09-30T05:11:11;15.10;99.90
47310;DHT22;33046;52.270;6.832;2023-09-30T05:13:18;15.10;99.90
47310;DHT22;33046;52.270;6.832;2023-09-30T05:15:34;15.10;99.90
47310;DHT22;33046;52.270;6.832;2023-09-30T05:21:23;15.10;99.90
47310;DHT22;33046;52.270;6.832;2023-09-30T05:23:30;15.00;99.90
47310;DHT22;33046;52.270;6.832;2023-09-30T05:25:37;15.10;99.90
47310;DHT22;33046;52.270;6.832;2023-09-30T05:27:44;15.10;99.90
47310;DHT22;33046;52.270;6.832;2023-09-30T05:29:51;15.10;99.90
47310;DHT22;33046;52.270;6.832;2023-09-30T05:31:58;15.00;99.90
47310;DHT22;33046;52.270;6.832;2023-09-30T05:34:05;15.10;99.90
47310;DHT22;33046;52.270;6.832;2023-09-30T05:36:11;15.10;99.90
47310;DHT22;33046;52.270;6.832;2023-09-30T05:38:20;15.00;99.90
47310;DHT22;33046;52.270;6.832;2023-09-30T05:40:26;15.10;99.90
47310;DHT22;33046;52.270;6.832;2023-09-30T05:42:33;15.10;99.90
47310;DHT22;33046;52.270;6.832;2023-09-30T05:44:40;15.10;99.90
47310;DHT22;33046;52.270;6.832;2023-09-30T05:46:47;15.10;99.90
47310;DHT22;33046;52.270;6.832;2023-09-30T05:48:54;15.10;99.90
47310;DHT22;33046;52.270;6.832;2023-09-30T05:51:01;15.10;99.90
47310;DHT22;33046;52.270;6.832;2023-09-30T05:53:08;15.10;99.90
47310;DHT22;33046;52.270;6.832;2023-09-30T05:55:16;15.10;99.90
47310;DHT22;33046;52.270;6.832;2023-09-30T05:57:23;15.10;99.90
47310;DHT22;33046;52.270;6.832;2023-09-30T05:59:30;15.10;99.90
47310;DHT22;33046;52.270;6.832;2023-09-30T06:01:37;15.10;99.90
47310;DHT22;33046;52.270;6.832;2023-09-30T06:03:44;15.20;99.90
47310;DHT22;33046;52.270;6.832;2023-09-30T06:05:51;15.20;99.90
47310;DHT22;33046;52.270;6.832;2023-09-30T06:07:59;15.20;99.90
47310;DHT22;33046;52.270;6.832;2023-09-30T06:10:07;15.20;99.90
47310;DHT22;33046;52.270;6.832;2023-09-30T06:12:15;15.20;99.90
47310;DHT22;33046;52.270;6.832;2023-09-30T06:14:22;15.20;99.90
47310;DHT22;33046;52.270;6.832;2023-09-30T06:16:29;15.20;99.90
47310;DHT22;33046;52.270;6.832;2023-09-30T06:18:36;15.20;99.90
47310;DHT22;33046;52.270;6.832;2023-09-30T06:20:43;15.20;99.90
47310;DHT22;33046;52.270;6.832;2023-09-30T06:22:50;15.20;99.90
47310;DHT22;33046;52.270;6.832;2023-09-30T06:25:08;15.20;99.90
47310;DHT22;33046;52.270;6.832;2023-09-30T06:27:19;15.30;99.90
47310;DHT22;33046;52.270;6.832;2023-09-30T06:29:26;15.30;99.90
47310;DHT22;33046;52.270;6.832;2023-09-30T06:31:32;15.30;99.90
47310;DHT22;33046;52.270;6.832;2023-09-30T06:33:39;15.30;99.90
47310;DHT22;33046;52.270;6.832;2023-09-30T06:35:46;15.30;99.90
47310;DHT22;33046;52.270;6.832;2023-09-30T06:37:53;15.30;99.90
47310;DHT22;33046;52.270;6.832;2023-09-30T06:40:00;15.30;99.90
47310;DHT22;33046;52.270;6.832;2023-09-30T06:42:07;15.40;99.90
47310;DHT22;33046;52.270;6.832;2023-09-30T06:44:15;15.30;99.90
47310;DHT22;33046;52.270;6.832;2023-09-30T06:46:22;15.40;99.90
47310;DHT22;33046;52.270;6.832;2023-09-30T06:48:29;15.40;99.90
47310;DHT22;33046;52.270;6.832;2023-09-30T06:50:36;15.40;99.90
47310;DHT22;33046;52.270;6.832;2023-09-30T06:52:44;15.40;99.90
47310;DHT22;33046;52.270;6.832;2023-09-30T06:54:50;15.50;99.90
47310;DHT22;33046;52.270;6.832;2023-09-30T06:56:57;15.50;99.90
47310;DHT22;33046;52.270;6.832;2023-09-30T06:59:04;15.50;99.90
47310;DHT22;33046;52.270;6.832;2023-09-30T07:01:16;15.50;99.90
47310;DHT22;33046;52.270;6.832;2023-09-30T07:03:22;15.50;99.90
47310;DHT22;33046;52.270;6.832;2023-09-30T07:05:32;15.60;99.90
47310;DHT22;33046;52.270;6.832;2023-09-30T07:07:39;15.60;99.90
47310;DHT22;33046;52.270;6.832;2023-09-30T07:09:46;15.60;99.90
47310;DHT22;33046;52.270;6.832;2023-09-30T07:11:53;15.60;99.90
47310;DHT22;33046;52.270;6.832;2023-09-30T07:13:59;15.70;99.90
47310;DHT22;33046;52.270;6.832;2023-09-30T07:16:06;15.70;99.90
47310;DHT22;33046;52.270;6.832;2023-09-30T07:18:15;15.70;99.90
47310;DHT22;33046;52.270;6.832;2023-09-30T07:20:22;15.80;99.90
47310;DHT22;33046;52.270;6.832;2023-09-30T07:22:28;15.70;99.90
47310;DHT22;33046;52.270;6.832;2023-09-30T07:24:39;15.80;99.90
47310;DHT22;33046;52.270;6.832;2023-09-30T07:26:46;15.90;99.90
47310;DHT22;33046;52.270;6.832;2023-09-30T07:28:53;15.90;99.90
47310;DHT22;33046;52.270;6.832;2023-09-30T07:31:00;15.90;99.90
47310;DHT22;33046;52.270;6.832;2023-09-30T07:33:07;16.00;99.90
47310;DHT22;33046;52.270;6.832;2023-09-30T07:35:15;16.00;99.90
47310;DHT22;33046;52.270;6.832;2023-09-30T07:37:22;16.10;99.90
47310;DHT22;33046;52.270;6.832;2023-09-30T07:39:29;16.10;99.90
47310;DHT22;33046;52.270;6.832;2023-09-30T07:41:36;16.20;99.90
47310;DHT22;33046;52.270;6.832;2023-09-30T07:43:43;16.20;99.90
47310;DHT22;33046;52.270;6.832;2023-09-30T07:45:50;16.20;99.90
47310;DHT22;33046;52.270;6.832;2023-09-30T07:47:57;16.30;99.90
47310;DHT22;33046;52.270;6.832;2023-09-30T07:50:04;16.30;99.90
47310;DHT22;33046;52.270;6.832;2023-09-30T07:52:13;16.30;99.90
47310;DHT22;33046;52.270;6.832;2023-09-30T07:54:20;16.30;99.90
47310;DHT22;33046;52.270;6.832;2023-09-30T07:56:36;16.30;99.90
47310;DHT22;33046;52.270;6.832;2023-09-30T07:58:43;16.40;99.90
47310;DHT22;33046;52.270;6.832;2023-09-30T08:00:50;16.50;99.90
47310;DHT22;33046;52.270;6.832;2023-09-30T08:02:57;16.50;99.90
47310;DHT22;33046;52.270;6.832;2023-09-30T08:05:05;16.60;99.90
47310;DHT22;33046;52.270;6.832;2023-09-30T08:07:13;16.60;99.90
47310;DHT22;33046;52.270;6.832;2023-09-30T08:09:20;16.60;99.90
47310;DHT22;33046;52.270;6.832;2023-09-30T08:11:27;16.70;99.90
47310;DHT22;33046;52.270;6.832;2023-09-30T08:13:34;16.70;99.90
47310;DHT22;33046;52.270;6.832;2023-09-30T08:15:41;16.70;99.90
47310;DHT22;33046;52.270;6.832;2023-09-30T08:17:48;16.80;99.90
47310;DHT22;33046;52.270;6.832;2023-09-30T08:19:55;16.80;99.90
47310;DHT22;33046;52.270;6.832;2023-09-30T08:22:02;16.90;99.90
47310;DHT22;33046;52.270;6.832;2023-09-30T08:24:10;16.90;99.90
47310;DHT22;33046;52.270;6.832;2023-09-30T08:26:17;16.90;99.90
47310;DHT22;33046;52.270;6.832;2023-09-30T08:28:23;17.00;99.90
47310;DHT22;33046;52.270;6.832;2023-09-30T08:30:32;17.00;99.90
47310;DHT22;33046;52.270;6.832;2023-09-30T08:32:39;17.10;99.90
47310;DHT22;33046;52.270;6.832;2023-09-30T08:34:45;17.10;99.90
47310;DHT22;33046;52.270;6.832;2023-09-30T08:36:52;17.10;99.90
47310;DHT22;33046;52.270;6.832;2023-09-30T08:38:59;17.10;99.90
47310;DHT22;33046;52.270;6.832;2023-09-30T08:41:09;17.20;99.90
47310;DHT22;33046;52.270;6.832;2023-09-30T08:43:19;17.10;99.90
47310;DHT22;33046;52.270;6.832;2023-09-30T08:45:28;17.20;99.90
47310;DHT22;33046;52.270;6.832;2023-09-30T08:47:37;17.30;99.90
47310;DHT22;33046;52.270;6.832;2023-09-30T08:49:44;17.30;99.90
47310;DHT22;33046;52.270;6.832;2023-09-30T08:51:51;17.30;99.90
47310;DHT22;33046;52.270;6.832;2023-09-30T08:53:59;17.40;99.90
47310;DHT22;33046;52.270;6.832;2023-09-30T08:56:07;17.40;99.90
47310;DHT22;33046;52.270;6.832;2023-09-30T08:58:16;17.50;99.90
47310;DHT22;33046;52.270;6.832;2023-09-30T09:00:48;17.50;99.90
47310;DHT22;33046;52.270;6.832;2023-09-30T09:02:56;17.60;99.90
47310;DHT22;33046;52.270;6.832;2023-09-30T09:05:03;17.60;99.90
47310;DHT22;33046;52.270;6.832;2023-09-30T09:07:10;17.70;99.90
47310;DHT22;33046;52.270;6.832;2023-09-30T09:09:18;17.70;99.90
47310;DHT22;33046;52.270;6.832;2023-09-30T09:11:26;17.80;99.90
47310;DHT22;33046;52.270;6.832;2023-09-30T09:13:45;17.80;99.90
47310;DHT22;33046;52.270;6.832;2023-09-30T09:16:06;17.80;99.90
47310;DHT22;33046;52.270;6.832;2023-09-30T09:18:13;17.80;99.90
47310;DHT22;33046;52.270;6.832;2023-09-30T09:20:37;17.90;99.90
47310;DHT22;33046;52.270;6.832;2023-09-30T09:22:44;17.90;99.90
47310;DHT22;33046;52.270;6.832;2023-09-30T09:24:51;17.90;99.90
47310;DHT22;33046;52.270;6.832;2023-09-30T09:27:06;18.00;99.90
47310;DHT22;33046;52.270;6.832;2023-09-30T09:29:13;18.00;99.90
47310;DHT22;33046;52.270;6.832;2023-09-30T09:31:24;18.00;99.90
47310;DHT22;33046;52.270;6.832;2023-09-30T09:33:35;18.10;99.90
47310;DHT22;33046;52.270;6.832;2023-09-30T09:35:48;18.10;99.90
47310;DHT22;33046;52.270;6.832;2023-09-30T09:37:58;18.20;99.90
47310;DHT22;33046;52.270;6.832;2023-09-30T09:40:06;18.30;99.90
47310;DHT22;33046;52.270;6.832;2023-09-30T09:42:24;18.30;99.90
47310;DHT22;33046;52.270;6.832;2023-09-30T09:44:31;18.30;99.90
47310;DHT22;33046;52.270;6.832;2023-09-30T09:46:41;18.30;99.90
47310;DHT22;33046;52.270;6.832;2023-09-30T09:48:48;18.30;99.90
47310;DHT22;33046;52.270;6.832;2023-09-30T09:50:55;18.30;99.90
47310;DHT22;33046;52.270;6.832;2023-09-30T09:53:04;18.40;99.90
47310;DHT22;33046;52.270;6.832;2023-09-30T09:55:11;18.40;99.90
47310;DHT22;33046;52.270;6.832;2023-09-30T09:57:20;18.40;99.90
47310;DHT22;33046;52.270;6.832;2023-09-30T09:59:27;18.40;99.90
47310;DHT22;33046;52.270;6.832;2023-09-30T10:01:34;18.50;99.90
47310;DHT22;33046;52.270;6.832;2023-09-30T10:03:42;18.60;99.90
47310;DHT22;33046;52.270;6.832;2023-09-30T10:05:49;18.60;99.90
47310;DHT22;33046;52.270;6.832;2023-09-30T10:08:01;18.50;99.90
47310;DHT22;33046;52.270;6.832;2023-09-30T10:10:15;18.50;99.90
47310;DHT22;33046;52.270;6.832;2023-09-30T10:12:25;18.60;99.90
47310;DHT22;33046;52.270;6.832;2023-09-30T10:14:33;18.60;99.90
47310;DHT22;33046;52.270;6.832;2023-09-30T10:16:49;18.70;99.90
47310;DHT22;33046;52.270;6.832;2023-09-30T10:19:07;18.70;99.90
47310;DHT22;33046;52.270;6.832;2023-09-30T10:21:14;18.80;99.90
47310;DHT22;33046;52.270;6.832;2023-09-30T10:23:25;18.80;99.90
47310;DHT22;33046;52.270;6.832;2023-09-30T10:25:33;18.90;99.90
47310;DHT22;33046;52.270;6.832;2023-09-30T10:27:42;19.00;99.90
47310;DHT22;33046;52.270;6.832;2023-09-30T10:29:49;18.90;99.20
47310;DHT22;33046;52.270;6.832;2023-09-30T10:32:00;18.90;99.20
47310;DHT22;33046;52.270;6.832;2023-09-30T10:34:31;18.90;98.80
47310;DHT22;33046;52.270;6.832;2023-09-30T10:36:39;19.00;98.80
47310;DHT22;33046;52.270;6.832;2023-09-30T10:38:47;18.90;99.00
47310;DHT22;33046;52.270;6.832;2023-09-30T10:40:54;19.00;99.50
47310;DHT22;33046;52.270;6.832;2023-09-30T10:43:02;19.10;99.60
47310;DHT22;33046;52.270;6.832;2023-09-30T10:45:43;19.10;99.70
47310;DHT22;33046;52.270;6.832;2023-09-30T10:47:50;19.10;98.90
47310;DHT22;33046;52.270;6.832;2023-09-30T10:49:57;19.20;98.80
47310;DHT22;33046;52.270;6.832;2023-09-30T10:52:03;19.30;98.70
47310;DHT22;33046;52.270;6.832;2023-09-30T10:54:11;19.40;98.80
47310;DHT22;33046;52.270;6.832;2023-09-30T10:56:19;19.40;98.80
47310;DHT22;33046;52.270;6.832;2023-09-30T10:58:40;19.40;98.40
47310;DHT22;33046;52.270;6.832;2023-09-30T11:00:54;19.30;98.20
47310;DHT22;33046;52.270;6.832;2023-09-30T11:03:01;19.40;98.40
47310;DHT22;33046;52.270;6.832;2023-09-30T11:05:09;19.40;98.30
47310;DHT22;33046;52.270;6.832;2023-09-30T11:07:22;19.50;98.10
47310;DHT22;33046;52.270;6.832;2023-09-30T11:09:29;19.40;98.00
47310;DHT22;33046;52.270;6.832;2023-09-30T11:11:41;19.40;97.90
47310;DHT22;33046;52.270;6.832;2023-09-30T11:13:49;19.40;97.90
47310;DHT22;33046;52.270;6.832;2023-09-30T11:16:00;19.40;97.70
47310;DHT22;33046;52.270;6.832;2023-09-30T11:18:14;19.50;97.60
47310;DHT22;33046;52.270;6.832;2023-09-30T11:20:21;19.50;96.50
47310;DHT22;33046;52.270;6.832;2023-09-30T11:22:28;19.50;96.60
47310;DHT22;33046;52.270;6.832;2023-09-30T11:24:35;19.50;96.70
47310;DHT22;33046;52.270;6.832;2023-09-30T11:26:42;19.50;96.10
47310;DHT22;33046;52.270;6.832;2023-09-30T11:28:51;19.60;96.20
47310;DHT22;33046;52.270;6.832;2023-09-30T11:30:59;19.60;95.90
47310;DHT22;33046;52.270;6.832;2023-09-30T11:33:06;19.50;95.80
47310;DHT22;33046;52.270;6.832;2023-09-30T11:35:22;19.60;95.90
47310;DHT22;33046;52.270;6.832;2023-09-30T11:37:31;19.70;96.10
47310;DHT22;33046;52.270;6.832;2023-09-30T11:39:38;19.70;95.70
47310;DHT22;33046;52.270;6.832;2023-09-30T11:41:45;19.70;95.10
47310;DHT22;33046;52.270;6.832;2023-09-30T11:44:00;19.80;94.90
47310;DHT22;33046;52.270;6.832;2023-09-30T11:46:08;19.80;94.40
47310;DHT22;33046;52.270;6.832;2023-09-30T11:48:17;19.70;93.90
47310;DHT22;33046;52.270;6.832;2023-09-30T11:50:24;19.70;93.50
47310;DHT22;33046;52.270;6.832;2023-09-30T11:52:31;19.80;93.60
47310;DHT22;33046;52.270;6.832;2023-09-30T11:54:39;19.80;93.50
47310;DHT22;33046;52.270;6.832;2023-09-30T11:56:46;19.80;93.50
47310;DHT22;33046;52.270;6.832;2023-09-30T11:58:53;19.90;93.70
47310;DHT22;33046;52.270;6.832;2023-09-30T12:01:01;19.80;93.30
47310;DHT22;33046;52.270;6.832;2023-09-30T12:03:08;20.00;93.70
47310;DHT22;33046;52.270;6.832;2023-09-30T12:05:14;20.00;93.50
47310;DHT22;33046;52.270;6.832;2023-09-30T12:07:21;19.90;93.70
47310;DHT22;33046;52.270;6.832;2023-09-30T12:09:28;19.90;93.60
47310;DHT22;33046;52.270;6.832;2023-09-30T12:11:35;19.90;93.60
47310;DHT22;33046;52.270;6.832;2023-09-30T12:13:42;20.10;94.10
47310;DHT22;33046;52.270;6.832;2023-09-30T12:15:49;20.10;93.80
47310;DHT22;33046;52.270;6.832;2023-09-30T12:17:57;20.10;93.80
47310;DHT22;33046;52.270;6.832;2023-09-30T12:20:05;20.00;93.60
47310;DHT22;33046;52.270;6.832;2023-09-30T12:22:12;20.00;93.30
47310;DHT22;33046;52.270;6.832;2023-09-30T12:24:19;20.10;93.50
47310;DHT22;33046;52.270;6.832;2023-09-30T12:26:26;20.10;93.50
47310;DHT22;33046;52.270;6.832;2023-09-30T12:28:34;20.10;93.50
47310;DHT22;33046;52.270;6.832;2023-09-30T12:30:41;20.10;93.80
47310;DHT22;33046;52.270;6.832;2023-09-30T12:32:48;20.00;93.40
47310;DHT22;33046;52.270;6.832;2023-09-30T12:34:56;20.00;93.60
47310;DHT22;33046;52.270;6.832;2023-09-30T12:37:03;20.00;93.60
47310;DHT22;33046;52.270;6.832;2023-09-30T12:39:11;19.90;93.70
47310;DHT22;33046;52.270;6.832;2023-09-30T12:41:18;20.00;93.60
47310;DHT22;33046;52.270;6.832;2023-09-30T12:43:24;19.90;93.30
47310;DHT22;33046;52.270;6.832;2023-09-30T12:45:31;20.00;93.50
47310;DHT22;33046;52.270;6.832;2023-09-30T12:47:38;20.00;93.40
47310;DHT22;33046;52.270;6.832;2023-09-30T12:49:45;20.00;93.00
47310;DHT22;33046;52.270;6.832;2023-09-30T12:51:53;20.00;93.00
47310;DHT22;33046;52.270;6.832;2023-09-30T12:54:01;20.00;92.00
47310;DHT22;33046;52.270;6.832;2023-09-30T12:56:07;20.10;92.20
47310;DHT22;33046;52.270;6.832;2023-09-30T12:58:15;20.10;92.50
47310;DHT22;33046;52.270;6.832;2023-09-30T13:00:22;20.20;93.00
47310;DHT22;33046;52.270;6.832;2023-09-30T13:02:30;20.20;93.00
47310;DHT22;33046;52.270;6.832;2023-09-30T13:04:37;20.30;93.00
47310;DHT22;33046;52.270;6.832;2023-09-30T13:06:44;20.40;93.40
47310;DHT22;33046;52.270;6.832;2023-09-30T13:08:52;20.40;93.20
47310;DHT22;33046;52.270;6.832;2023-09-30T13:10:59;20.30;92.90
47310;DHT22;33046;52.270;6.832;2023-09-30T13:13:06;20.30;92.80
47310;DHT22;33046;52.270;6.832;2023-09-30T13:15:13;20.20;92.80
47310;DHT22;33046;52.270;6.832;2023-09-30T13:17:20;20.20;92.80
47310;DHT22;33046;52.270;6.832;2023-09-30T13:19:27;20.30;92.60
47310;DHT22;33046;52.270;6.832;2023-09-30T13:21:33;20.20;92.60
47310;DHT22;33046;52.270;6.832;2023-09-30T13:23:40;20.30;92.60
47310;DHT22;33046;52.270;6.832;2023-09-30T13:25:49;20.20;92.40
47310;DHT22;33046;52.270;6.832;2023-09-30T13:27:55;20.20;92.30
47310;DHT22;33046;52.270;6.832;2023-09-30T13:30:03;20.20;92.70
47310;DHT22;33046;52.270;6.832;2023-09-30T13:32:10;20.20;92.40
47310;DHT22;33046;52.270;6.832;2023-09-30T13:34:17;20.20;92.60
47310;DHT22;33046;52.270;6.832;2023-09-30T13:36:24;20.10;92.30
47310;DHT22;33046;52.270;6.832;2023-09-30T13:38:30;20.10;92.30
47310;DHT22;33046;52.270;6.832;2023-09-30T13:40:37;20.20;92.80